createdAt,value
2017-09-06T00:00:45.971Z,95231.14
2017-09-06T00:03:16.381Z,95233.42
2017-09-06T00:05:47.346Z,95229.13
2017-09-06T00:08:17.546Z,95224.44
2017-09-06T00:10:48.049Z,95220.02
2017-09-06T00:13:18.376Z,95220.98
2017-09-06T00:15:49.006Z,95217.77
2017-09-06T00:18:19.339Z,95210.93
2017-09-06T00:20:50.056Z,95215.48
2017-09-06T00:23:22.232Z,95212.13
2017-09-06T00:25:52.996Z,95210.23
2017-09-06T00:28:23.403Z,95210.22
2017-09-06T00:30:53.800Z,95215.05
2017-09-06T00:33:28.003Z,95200.83
2017-09-06T00:36:00.560Z,95203.52
2017-09-06T00:38:30.992Z,95203.11
2017-09-06T00:41:06.620Z,95206.42
2017-09-06T00:43:42.264Z,95204.03
2017-09-06T00:46:17.352Z,95193.72
2017-09-06T00:48:47.773Z,95192.52
2017-09-06T00:51:18.337Z,95192.36
2017-09-06T00:53:49.173Z,95190.06
2017-09-06T00:56:19.808Z,95188.59
2017-09-06T00:58:55.698Z,95181.65
2017-09-06T01:01:34.486Z,95185.09
2017-09-06T01:04:05.049Z,95174.71
2017-09-06T01:06:35.735Z,95175.94
2017-09-06T01:09:05.953Z,95172.32
2017-09-06T01:11:36.342Z,95165.20
2017-09-06T01:14:07.042Z,95163.20
2017-09-06T01:16:38.340Z,95162.11
2017-09-06T01:19:10.188Z,95161.59
2017-09-06T01:21:40.400Z,95152.05
2017-09-06T01:24:17.928Z,95147.77
2017-09-06T01:26:48.048Z,95140.04
2017-09-06T01:29:27.596Z,95137.99
2017-09-06T01:32:03.803Z,95142.17
2017-09-06T01:34:35.116Z,95145.10
2017-09-06T01:37:06.265Z,95148.31
2017-09-06T01:42:11.044Z,95140.13
2017-09-06T01:44:50.400Z,95145.36
2017-09-06T01:50:04.152Z,95135.97
2017-09-06T01:52:34.518Z,95142.55
2017-09-06T01:55:05.577Z,95140.94
2017-09-06T01:57:36.079Z,95141.18
2017-09-06T02:00:06.725Z,95131.66
2017-09-06T02:02:37.570Z,95128.33
2017-09-06T02:05:08.022Z,95130.08
2017-09-06T02:07:38.459Z,95123.37
2017-09-06T02:10:09.717Z,95109.70
2017-09-06T02:12:45.079Z,95109.28
2017-09-06T02:15:33.418Z,95116.13
2017-09-06T02:18:04.030Z,95110.81
2017-09-06T02:20:43.760Z,95104.00
2017-09-06T02:23:16.009Z,95093.28
2017-09-06T02:25:55.388Z,95096.58
2017-09-06T02:28:26.003Z,95093.13
2017-09-06T02:30:56.572Z,95098.64
2017-09-06T02:33:27.697Z,95092.31
2017-09-06T02:35:58.302Z,95090.28
2017-09-06T02:38:28.887Z,95089.65
2017-09-06T02:40:59.614Z,95086.83
2017-09-06T02:43:30.465Z,95089.11
2017-09-06T02:46:01.365Z,95090.34
2017-09-06T02:48:31.878Z,95094.37
2017-09-06T02:51:02.754Z,95082.69
2017-09-06T02:53:36.645Z,95079.75
2017-09-06T02:56:08.653Z,95082.84
2017-09-06T02:58:47.768Z,95080.16
2017-09-06T03:01:20.568Z,95082.14
2017-09-06T03:03:58.219Z,95080.96
2017-09-06T03:06:29.335Z,95080.16
2017-09-06T03:11:39.897Z,95069.16
2017-09-06T03:14:10.458Z,95067.11
2017-09-06T03:19:31.546Z,95071.61
2017-09-06T03:22:02.164Z,95072.83
2017-09-06T03:24:32.824Z,95067.19
2017-09-06T03:27:03.866Z,95068.14
2017-09-06T03:29:35.050Z,95068.52
2017-09-06T03:32:06.716Z,95061.77
2017-09-06T03:34:38.133Z,95058.55
2017-09-06T03:37:17.946Z,95060.36
2017-09-06T03:40:03.008Z,95054.63
2017-09-06T03:42:41.637Z,95049.81
2017-09-06T03:45:21.969Z,95047.30
2017-09-06T03:48:06.721Z,95046.59
2017-09-06T03:50:37.330Z,95042.45
2017-09-06T03:53:07.915Z,95040.80
2017-09-06T03:55:38.565Z,95038.64
2017-09-06T03:58:10.465Z,95033.68
2017-09-06T04:00:41.229Z,95040.08
2017-09-06T04:03:12.024Z,95034.41
2017-09-06T04:05:42.930Z,95030.36
2017-09-06T04:08:22.363Z,95033.31
2017-09-06T04:10:52.958Z,95032.06
2017-09-06T04:13:24.154Z,95033.02
2017-09-06T04:15:54.865Z,95029.80
2017-09-06T04:18:25.622Z,95030.73
2017-09-06T04:20:56.341Z,95030.06
2017-09-06T04:23:27.333Z,95029.71
2017-09-06T04:25:57.995Z,95026.94
2017-09-06T04:28:29.080Z,95028.89
2017-09-06T04:31:01.353Z,95023.11
2017-09-06T04:33:32.290Z,95018.44
2017-09-06T04:41:15.803Z,95012.81
2017-09-06T04:43:46.538Z,95017.92
2017-09-06T04:46:17.873Z,95018.30
2017-09-06T04:48:48.214Z,95009.02
2017-09-06T04:51:19.609Z,95006.55
2017-09-06T04:53:50.101Z,95008.30
2017-09-06T04:56:21.066Z,95017.31
2017-09-06T04:58:51.459Z,95013.34
2017-09-06T05:01:21.852Z,95021.76
2017-09-06T05:03:54.392Z,95018.59
2017-09-06T05:06:38.235Z,95013.39
2017-09-06T05:09:21.010Z,95013.03
2017-09-06T05:15:15.225Z,95019.42
2017-09-06T05:17:52.505Z,95013.83
2017-09-06T05:20:27.439Z,95014.94
2017-09-06T05:26:21.155Z,95016.02
2017-09-06T05:28:59.127Z,95015.07
2017-09-06T05:31:39.156Z,95014.95
2017-09-06T05:41:04.001Z,95014.44
2017-09-06T05:43:37.240Z,95012.45
2017-09-06T05:49:41.162Z,95008.95
2017-09-06T05:52:12.249Z,95009.59
2017-09-06T06:30:44.666Z,95014.19
2017-09-06T06:33:15.395Z,95006.55
2017-09-06T06:35:46.006Z,95009.73
2017-09-06T06:38:24.758Z,95009.98
2017-09-06T06:40:55.377Z,95004.80
2017-09-06T06:43:25.954Z,95000.23
2017-09-06T06:52:43.237Z,94996.88
2017-09-06T06:55:14.864Z,94994.61
2017-09-06T06:57:45.444Z,94996.19
2017-09-06T07:00:25.232Z,95000.89
2017-09-06T07:02:56.764Z,94992.20
2017-09-06T07:05:27.291Z,94989.00
2017-09-06T07:18:05.685Z,94976.19
2017-09-06T07:20:38.912Z,94975.39
2017-09-06T07:23:10.085Z,94973.22
2017-09-06T07:32:26.016Z,94962.53
2017-09-06T07:34:56.742Z,94967.01
2017-09-06T07:37:28.604Z,94960.09
2017-09-06T07:40:07.909Z,94962.77
2017-09-06T07:42:38.682Z,94960.50
2017-09-06T07:45:09.666Z,94964.89
2017-09-06T07:48:03.796Z,94956.87
2017-09-06T07:50:35.653Z,94958.63
2017-09-06T07:53:06.677Z,94965.33
2017-09-06T07:59:00.305Z,94956.36
2017-09-06T08:01:30.898Z,94950.58
2017-09-06T08:10:46.672Z,94937.73
2017-09-06T08:13:17.295Z,94943.59
2017-09-06T08:16:23.659Z,94946.71
2017-09-06T08:18:54.284Z,94946.78
2017-09-06T08:21:27.320Z,94946.84
2017-09-06T08:23:58.147Z,94941.58
2017-09-06T08:26:28.692Z,94951.25
2017-09-06T08:29:03.732Z,94946.39
2017-09-06T08:31:35.304Z,94942.93
2017-09-06T08:34:05.928Z,94941.30
2017-09-06T08:36:40.288Z,94946.02
2017-09-06T08:39:11.572Z,94942.63
2017-09-06T08:41:43.512Z,94946.84
2017-09-06T08:44:14.104Z,94946.31
2017-09-06T08:46:46.624Z,94935.81
2017-09-06T08:49:17.719Z,94939.16
2017-09-06T08:51:49.853Z,94934.38
2017-09-06T08:54:20.449Z,94927.98
2017-09-06T08:56:54.498Z,94930.56
2017-09-06T08:59:25.197Z,94931.88
2017-09-06T09:02:16.897Z,94926.16
2017-09-06T09:04:47.538Z,94933.06
2017-09-06T09:07:18.848Z,94920.58
2017-09-06T09:09:50.651Z,94920.45
2017-09-06T09:12:22.985Z,94906.49
2017-09-06T09:14:54.039Z,94924.48
2017-09-06T09:17:25.860Z,94917.41
2017-09-06T09:19:59.711Z,94921.97
2017-09-06T09:22:30.757Z,94930.94
2017-09-06T09:25:02.279Z,94916.61
2017-09-06T09:27:34.704Z,94912.59
2017-09-06T09:30:19.064Z,94916.19
2017-09-06T09:32:49.710Z,94913.20
2017-09-06T09:35:21.539Z,94909.48
2017-09-06T09:38:01.950Z,94910.25
2017-09-06T09:40:32.576Z,94909.84
2017-09-06T09:43:03.550Z,94907.02
2017-09-06T09:46:06.525Z,94903.44
2017-09-06T09:48:44.710Z,94901.47
2017-09-06T09:51:19.126Z,94897.81
2017-09-06T09:54:07.250Z,94899.87
2017-09-06T09:56:38.212Z,94902.00
2017-09-06T09:59:09.644Z,94903.05
2017-09-06T10:01:40.372Z,94896.70
2017-09-06T10:04:11.594Z,94888.44
2017-09-06T10:06:42.170Z,94888.89
2017-09-06T10:09:22.418Z,94882.19
2017-09-06T10:11:56.669Z,94890.61
2017-09-06T10:14:27.205Z,94882.34
2017-09-06T10:20:20.985Z,94882.66
2017-09-06T10:22:51.750Z,94887.80
2017-09-06T10:25:22.941Z,94880.41
2017-09-06T10:28:40.557Z,94881.99
2017-09-06T10:31:11.266Z,94882.86
2017-09-06T10:33:43.390Z,94880.38
2017-09-06T10:39:38.052Z,94870.36
2017-09-06T10:42:20.196Z,94871.82
2017-09-06T10:45:07.942Z,94870.19
2017-09-06T10:47:39.319Z,94877.44
2017-09-06T10:50:10.315Z,94882.39
2017-09-06T11:00:01.612Z,94871.42
2017-09-06T11:03:05.231Z,94861.71
2017-09-06T11:09:18.776Z,94852.67
2017-09-06T11:12:43.262Z,94872.07
2017-09-06T11:15:16.458Z,94877.91
2017-09-06T11:17:46.951Z,94871.93
2017-09-06T11:20:17.597Z,94887.42
2017-09-06T11:25:25.254Z,94887.26
2017-09-06T11:27:55.802Z,94900.26
2017-09-06T11:30:26.770Z,94887.90
2017-09-06T11:32:57.309Z,94887.07
2017-09-06T11:35:27.652Z,94888.45
2017-09-06T11:37:59.865Z,94894.39
2017-09-06T11:40:30.998Z,94900.38
2017-09-06T11:43:03.124Z,94907.64
2017-09-06T11:45:33.588Z,94911.31
2017-09-06T11:48:05.372Z,94909.21
2017-09-06T11:50:42.776Z,94922.41
2017-09-06T11:53:16.094Z,94930.47
2017-09-06T11:55:47.074Z,94928.13
2017-09-06T11:58:17.741Z,94919.81
2017-09-06T12:00:48.471Z,94941.30
2017-09-06T12:03:21.308Z,94944.70
2017-09-06T12:05:51.769Z,94947.41
2017-09-06T12:08:22.179Z,94952.67
2017-09-06T12:10:54.082Z,94952.94
2017-09-06T12:13:24.886Z,94963.98
2017-09-06T12:15:55.541Z,94959.80
2017-09-06T12:18:26.431Z,94960.27
2017-09-06T12:20:56.797Z,94963.39
2017-09-06T12:23:28.178Z,94966.18
2017-09-06T12:25:59.815Z,94967.20
2017-09-06T12:28:34.641Z,94979.39
2017-09-06T12:31:05.382Z,94971.93
2017-09-06T12:33:40.989Z,94985.52
2017-09-06T12:36:12.412Z,94977.47
2017-09-06T12:38:54.341Z,94974.81
2017-09-06T12:41:26.830Z,94972.78
2017-09-06T12:43:58.413Z,94983.35
2017-09-06T12:46:31.642Z,94984.98
2017-09-06T12:49:02.125Z,94975.16
2017-09-06T12:51:34.697Z,94987.30
2017-09-06T12:54:05.833Z,94989.53
2017-09-06T12:56:36.728Z,94987.80
2017-09-06T12:59:07.221Z,94996.41
2017-09-06T13:01:38.346Z,94995.73
2017-09-06T13:04:09.082Z,95003.97
2017-09-06T13:06:40.027Z,94996.98
2017-09-06T13:09:12.890Z,94988.67
2017-09-06T13:11:43.435Z,94982.32
2017-09-06T13:14:16.112Z,94970.40
2017-09-06T13:16:50.358Z,94957.85
2017-09-06T13:19:21.386Z,94964.59
2017-09-06T13:21:52.149Z,94965.98
2017-09-06T13:24:25.458Z,94974.38
2017-09-06T13:26:56.990Z,94967.55
2017-09-06T13:29:27.577Z,94975.36
2017-09-06T13:34:29.264Z,94977.33
2017-09-06T13:36:59.982Z,94975.59
2017-09-06T13:39:30.610Z,94986.73
2017-09-06T13:42:01.234Z,94976.19
2017-09-06T13:44:35.464Z,94982.59
2017-09-06T13:47:05.968Z,94973.94
2017-09-06T13:49:37.345Z,94977.47
2017-09-06T13:52:07.697Z,94972.88
2017-09-06T13:54:38.268Z,94969.53
2017-09-06T13:57:08.912Z,94957.98
2017-09-06T13:59:39.672Z,94962.72
2017-09-06T14:02:09.995Z,94962.78
2017-09-06T14:04:40.641Z,94964.27
2017-09-06T14:07:11.021Z,94960.67
2017-09-06T14:09:41.465Z,94960.38
2017-09-06T14:12:11.810Z,94955.20
2017-09-06T14:14:43.437Z,94956.20
2017-09-06T14:17:14.607Z,94956.45
2017-09-06T14:19:46.363Z,94949.00
2017-09-06T14:22:17.455Z,94954.70
2017-09-06T14:24:47.860Z,94953.87
2017-09-06T14:29:55.800Z,94968.28
2017-09-06T14:32:26.505Z,94963.41
2017-09-06T14:34:56.931Z,94955.25
2017-09-06T14:37:27.261Z,94964.64
2017-09-06T14:39:58.143Z,94968.78
2017-09-06T14:42:28.500Z,94964.89
2017-09-06T14:44:58.833Z,94970.23
2017-09-06T14:47:30.474Z,94967.69
2017-09-06T14:50:01.158Z,94969.38
2017-09-06T14:52:31.521Z,94979.81
2017-09-06T14:55:02.581Z,94979.81
2017-09-06T14:57:33.018Z,94972.83
2017-09-06T15:00:03.552Z,94976.20
2017-09-06T15:02:34.853Z,94976.62
2017-09-06T15:05:05.613Z,94986.05
2017-09-06T15:07:37.285Z,94994.03
2017-09-06T15:10:09.586Z,94988.11
2017-09-06T15:12:42.638Z,94994.78
2017-09-06T15:15:13.794Z,94993.49
2017-09-06T15:17:45.961Z,94997.59
2017-09-06T15:20:20.572Z,94993.08
2017-09-06T15:22:59.615Z,94995.06
2017-09-06T15:25:30.890Z,94991.25
2017-09-06T15:28:01.796Z,94992.86
2017-09-06T15:30:32.393Z,94991.47
2017-09-06T15:33:03.261Z,94993.56
2017-09-06T15:35:47.819Z,94993.37
2017-09-06T15:38:18.623Z,94979.69
2017-09-06T15:41:06.492Z,94987.58
2017-09-06T15:43:37.746Z,94989.86
2017-09-06T15:46:10.802Z,94992.97
2017-09-06T15:48:41.570Z,94989.48
2017-09-06T15:51:12.383Z,94986.07
2017-09-06T15:57:05.686Z,94999.30
2017-09-06T15:59:36.410Z,95020.95
2017-09-06T16:02:07.126Z,95023.33
2017-09-06T16:04:50.872Z,95023.68
2017-09-06T16:07:21.658Z,95016.17
2017-09-06T16:09:52.110Z,95027.62
2017-09-06T16:12:23.619Z,95034.11
2017-09-06T16:14:54.616Z,95037.61
2017-09-06T16:17:25.069Z,95035.34
2017-09-06T16:19:58.155Z,95030.41
2017-09-06T16:22:39.002Z,95037.49
2017-09-06T16:25:14.281Z,95033.22
2017-09-06T16:27:48.448Z,95028.39
2017-09-06T16:30:48.802Z,95031.97
2017-09-06T16:33:19.942Z,95035.06
2017-09-06T16:35:54.592Z,95035.78
2017-09-06T16:38:27.295Z,95043.30
2017-09-06T16:40:58.573Z,95051.05
2017-09-06T16:43:42.822Z,95074.00
2017-09-06T16:46:57.003Z,95073.52
2017-09-06T16:52:44.695Z,95091.41
2017-09-06T16:55:15.939Z,95088.86
2017-09-06T16:57:46.834Z,95086.86
2017-09-06T17:00:27.131Z,95091.21
2017-09-06T17:02:58.176Z,95095.59
2017-09-06T17:08:16.927Z,95086.57
2017-09-06T17:11:11.463Z,95086.63
2017-09-06T17:13:48.304Z,95098.89
2017-09-06T17:16:18.882Z,95100.28
2017-09-06T17:18:51.672Z,95096.38
2017-09-06T17:21:22.655Z,95106.94
2017-09-06T17:23:53.901Z,95111.31
2017-09-06T17:29:48.674Z,95117.10
2017-09-06T17:32:20.537Z,95114.83
2017-09-06T17:34:52.131Z,95120.91
2017-09-06T17:37:31.251Z,95124.56
2017-09-06T17:40:07.110Z,95121.98
2017-09-06T17:42:37.670Z,95124.09
2017-09-06T17:45:09.151Z,95121.06
2017-09-06T17:50:49.386Z,95127.38
2017-09-06T17:53:20.248Z,95124.89
2017-09-06T17:55:55.139Z,95134.81
2017-09-06T18:02:38.136Z,95122.97
2017-09-06T18:05:11.158Z,95127.16
2017-09-06T18:08:01.668Z,95128.13
2017-09-06T18:13:13.055Z,95126.45
2017-09-06T18:16:01.727Z,95128.59
2017-09-06T18:18:37.417Z,95136.95
2017-09-06T18:21:30.204Z,95140.30
2017-09-06T18:24:03.562Z,95131.78
2017-09-06T18:26:34.787Z,95139.17
2017-09-06T18:46:55.300Z,95153.28
2017-09-06T18:49:26.727Z,95155.52
2017-09-06T18:52:03.194Z,95155.98
2017-09-06T18:54:33.939Z,95155.46
2017-09-06T18:57:06.226Z,95160.48
2017-09-06T19:02:26.882Z,95169.25
2017-09-06T19:05:14.997Z,95165.78
2017-09-06T19:08:23.690Z,95171.56
2017-09-06T19:10:56.493Z,95163.72
2017-09-06T19:40:06.353Z,95177.37
2017-09-06T19:42:56.919Z,95179.42
2017-09-06T19:45:51.233Z,95179.00
2017-09-06T19:48:29.891Z,95177.21
2017-09-06T20:05:14.502Z,95182.08
2017-09-06T21:38:49.061Z,95181.59
